createdAt,value
2016-08-29T00:00:34.880Z,64.65
2016-08-29T00:01:43.853Z,64.63
2016-08-29T00:02:39.108Z,64.64
2016-08-29T00:03:45.736Z,64.63
2016-08-29T00:04:21.743Z,64.64
2016-08-29T00:05:29.380Z,64.66
2016-08-29T00:06:42.205Z,64.64
2016-08-29T00:07:39.495Z,64.64
2016-08-29T00:08:39.643Z,64.64
2016-08-29T00:09:45.265Z,64.65
2016-08-29T00:10:47.886Z,64.48
2016-08-29T00:11:54.672Z,63.64
2016-08-29T00:12:44.840Z,63.47
2016-08-29T00:13:55.788Z,63.32
2016-08-29T00:14:57.233Z,63.26
2016-08-29T00:15:52.457Z,63.23
2016-08-29T00:16:45.270Z,63.19
2016-08-29T00:17:42.175Z,63.18
2016-08-29T00:18:52.481Z,63.17
2016-08-29T00:20:01.032Z,63.17
2016-08-29T00:20:42.121Z,63.53
2016-08-29T00:22:07.056Z,64.17
2016-08-29T00:22:46.413Z,64.39
2016-08-29T00:23:39.298Z,64.49
2016-08-29T00:24:34.218Z,64.55
2016-08-29T00:25:40.366Z,64.60
2016-08-29T00:26:34.021Z,64.61
2016-08-29T00:27:31.218Z,64.63
2016-08-29T00:28:29.677Z,64.64
2016-08-29T00:29:37.683Z,64.58
2016-08-29T00:30:39.173Z,63.66
2016-08-29T00:31:40.564Z,63.49
2016-08-29T00:32:38.618Z,63.37
2016-08-29T00:33:32.197Z,63.29
2016-08-29T00:34:38.885Z,63.25
2016-08-29T00:35:41.598Z,63.23
2016-08-29T00:36:31.418Z,63.19
2016-08-29T00:37:39.238Z,63.28
2016-08-29T00:38:38.060Z,64.21
2016-08-29T00:39:35.266Z,64.42
2016-08-29T00:40:21.921Z,64.51
2016-08-29T00:41:35.559Z,64.59
2016-08-29T00:42:41.261Z,64.63
2016-08-29T00:43:44.317Z,64.64
2016-08-29T00:44:31.692Z,64.66
2016-08-29T00:45:46.238Z,64.68
2016-08-29T00:46:33.986Z,64.70
2016-08-29T00:47:36.996Z,64.69
2016-08-29T00:48:40.465Z,64.71
2016-08-29T00:49:37.421Z,64.71
2016-08-29T00:50:25.273Z,64.71
2016-08-29T00:51:34.644Z,64.71
2016-08-29T00:52:34.085Z,64.72
2016-08-29T00:53:34.013Z,64.71
2016-08-29T00:54:31.906Z,64.73
2016-08-29T00:55:33.004Z,64.73
2016-08-29T00:56:35.835Z,64.73
2016-08-29T00:57:41.208Z,64.73
2016-08-29T00:58:44.947Z,64.73
2016-08-29T00:59:44.630Z,64.75
2016-08-29T01:00:35.157Z,64.74
2016-08-29T01:01:21.336Z,64.77
2016-08-29T01:02:49.628Z,64.76
2016-08-29T01:03:15.432Z,64.74
2016-08-29T01:04:20.600Z,64.75
2016-08-29T01:05:39.869Z,64.74
2016-08-29T01:06:52.022Z,64.75
2016-08-29T01:07:23.543Z,64.75
2016-08-29T01:08:34.823Z,64.76
2016-08-29T01:09:44.301Z,64.76
2016-08-29T01:10:35.904Z,64.78
2016-08-29T01:11:33.819Z,64.77
2016-08-29T01:12:25.810Z,64.76
2016-08-29T01:13:32.376Z,64.76
2016-08-29T01:14:21.027Z,64.76
2016-08-29T01:15:25.620Z,64.76
2016-08-29T01:16:28.392Z,64.77
2016-08-29T01:17:42.459Z,64.77
2016-08-29T01:18:36.714Z,64.77
2016-08-29T01:19:36.862Z,64.77
2016-08-29T01:20:32.022Z,64.75
2016-08-29T01:21:34.075Z,64.78
2016-08-29T01:22:37.259Z,64.77
2016-08-29T01:23:38.807Z,64.78
2016-08-29T01:24:32.846Z,64.57
2016-08-29T01:25:32.603Z,63.77
2016-08-29T01:26:40.922Z,63.55
2016-08-29T01:27:32.411Z,63.50
2016-08-29T01:28:39.347Z,63.42
2016-08-29T01:29:40.677Z,64.35
2016-08-29T01:30:23.079Z,64.56
2016-08-29T01:31:33.105Z,64.64
2016-08-29T01:32:38.137Z,64.71
2016-08-29T01:33:44.096Z,64.73
2016-08-29T01:34:22.012Z,64.76
2016-08-29T01:35:42.827Z,64.78
2016-08-29T01:36:37.052Z,64.78
2016-08-29T01:37:29.776Z,64.80
2016-08-29T01:38:34.754Z,64.79
2016-08-29T01:39:46.692Z,64.78
2016-08-29T01:40:45.615Z,64.79
2016-08-29T01:41:27.277Z,64.81
2016-08-29T01:42:26.106Z,64.80
2016-08-29T01:43:26.306Z,64.82
2016-08-29T01:44:34.674Z,64.82
2016-08-29T01:45:14.587Z,64.82
2016-08-29T01:46:38.662Z,64.82
2016-08-29T01:47:26.278Z,64.82
2016-08-29T01:48:38.367Z,64.82
2016-08-29T01:49:22.249Z,64.84
2016-08-29T01:50:32.548Z,64.83
2016-08-29T01:51:39.731Z,64.82
2016-08-29T01:52:38.596Z,64.84
2016-08-29T01:53:32.777Z,64.86
2016-08-29T01:54:35.251Z,64.82
2016-08-29T01:55:39.939Z,64.84
2016-08-29T01:56:15.415Z,64.85
2016-08-29T01:57:44.823Z,64.85
2016-08-29T01:58:28.605Z,64.86
2016-08-29T01:59:45.733Z,64.86
2016-08-29T02:00:40.384Z,64.86
2016-08-29T02:01:38.793Z,64.84
2016-08-29T02:02:45.094Z,64.85
2016-08-29T02:03:25.900Z,64.85
2016-08-29T02:04:37.580Z,64.85
2016-08-29T02:05:34.830Z,64.86
2016-08-29T02:06:40.549Z,64.74
2016-08-29T02:07:33.660Z,63.84
2016-08-29T02:08:33.152Z,63.62
2016-08-29T02:09:34.703Z,63.51
2016-08-29T02:10:34.261Z,63.46
2016-08-29T02:11:44.553Z,63.43
2016-08-29T02:12:43.870Z,63.35
2016-08-29T02:13:21.657Z,63.38
2016-08-29T02:14:28.512Z,63.38
2016-08-29T02:15:38.369Z,63.37
2016-08-29T02:16:44.894Z,63.36
2016-08-29T02:17:27.512Z,63.43
2016-08-29T02:18:21.167Z,64.36
2016-08-29T02:19:26.550Z,64.57
2016-08-29T02:20:43.288Z,64.67
2016-08-29T02:21:32.572Z,64.56
2016-08-29T02:22:33.845Z,63.75
2016-08-29T02:23:26.435Z,63.56
2016-08-29T02:24:37.076Z,63.87
2016-08-29T02:25:37.883Z,64.47
2016-08-29T02:26:37.214Z,64.64
2016-08-29T02:27:26.469Z,64.75
2016-08-29T02:28:40.073Z,64.77
2016-08-29T02:29:33.692Z,64.82
2016-08-29T02:30:28.450Z,64.82
2016-08-29T02:31:24.946Z,64.84
2016-08-29T02:32:45.157Z,64.84
2016-08-29T02:33:34.232Z,64.85
2016-08-29T02:34:40.265Z,64.92
2016-08-29T02:35:21.014Z,64.92
2016-08-29T02:36:32.974Z,64.93
2016-08-29T02:37:52.666Z,64.91
2016-08-29T02:38:43.655Z,65.00
2016-08-29T02:39:40.630Z,64.94
2016-08-29T02:40:44.653Z,64.95
2016-08-29T02:41:45.009Z,64.95
2016-08-29T02:42:51.621Z,65.00
2016-08-29T02:43:50.896Z,65.07
2016-08-29T02:44:41.171Z,65.14
2016-08-29T02:45:40.501Z,65.08
2016-08-29T02:46:39.786Z,65.12
2016-08-29T02:47:48.247Z,65.23
2016-08-29T02:48:51.637Z,65.38
2016-08-29T02:49:50.641Z,65.43
2016-08-29T02:50:40.062Z,65.46
2016-08-29T02:51:44.688Z,65.42
2016-08-29T02:52:43.261Z,65.40
2016-08-29T02:53:49.860Z,65.31
2016-08-29T02:54:45.541Z,65.19
2016-08-29T02:55:44.966Z,65.12
2016-08-29T02:56:55.985Z,65.07
2016-08-29T02:57:44.811Z,65.12
2016-08-29T02:58:45.316Z,65.07
2016-08-29T02:59:43.571Z,65.08
2016-08-29T03:00:49.406Z,65.07
2016-08-29T03:01:39.076Z,65.04
2016-08-29T03:02:37.950Z,65.05
2016-08-29T03:03:59.025Z,65.11
2016-08-29T03:04:39.835Z,65.14
2016-08-29T03:05:28.407Z,65.10
2016-08-29T03:06:41.063Z,65.11
2016-08-29T03:07:43.300Z,65.15
2016-08-29T03:08:38.076Z,65.19
2016-08-29T03:09:43.283Z,65.16
2016-08-29T03:10:43.591Z,65.16
2016-08-29T03:11:41.982Z,65.11
2016-08-29T03:12:42.769Z,65.18
2016-08-29T03:13:55.347Z,65.18
2016-08-29T03:14:56.011Z,65.19
2016-08-29T03:15:41.270Z,65.23
2016-08-29T03:16:44.064Z,65.23
2016-08-29T03:17:40.015Z,65.16
2016-08-29T03:18:43.745Z,65.18
2016-08-29T03:19:42.937Z,65.14
2016-08-29T03:20:40.198Z,65.17
2016-08-29T03:21:44.463Z,65.18
2016-08-29T03:22:51.900Z,65.15
2016-08-29T03:23:41.836Z,65.13
2016-08-29T03:24:38.565Z,65.17
2016-08-29T03:25:49.056Z,65.19
2016-08-29T03:26:42.085Z,65.17
2016-08-29T03:27:47.855Z,65.16
2016-08-29T03:28:44.388Z,65.16
2016-08-29T03:29:44.029Z,65.14
2016-08-29T03:30:57.155Z,65.15
2016-08-29T03:31:37.502Z,65.11
2016-08-29T03:32:52.049Z,65.10
2016-08-29T03:33:45.006Z,65.09
2016-08-29T03:34:48.413Z,65.08
2016-08-29T03:35:45.484Z,65.13
2016-08-29T03:36:45.514Z,65.16
2016-08-29T03:37:48.504Z,65.16
2016-08-29T03:38:52.241Z,65.16
2016-08-29T03:39:42.129Z,65.16
2016-08-29T03:40:38.902Z,65.22
2016-08-29T03:41:44.038Z,65.24
2016-08-29T03:42:46.227Z,65.21
2016-08-29T03:43:43.314Z,65.20
2016-08-29T03:44:45.081Z,65.26
2016-08-29T03:45:49.779Z,65.35
2016-08-29T03:46:48.501Z,65.26
2016-08-29T03:47:51.818Z,65.34
2016-08-29T03:48:46.285Z,65.41
2016-08-29T03:49:44.572Z,65.45
2016-08-29T03:50:44.337Z,65.48
2016-08-29T03:51:34.583Z,65.37
2016-08-29T03:52:50.954Z,65.38
2016-08-29T03:53:43.113Z,65.24
2016-08-29T03:54:42.903Z,65.35
2016-08-29T03:55:43.555Z,65.44
2016-08-29T03:56:40.780Z,65.47
2016-08-29T03:57:45.896Z,65.47
2016-08-29T03:58:39.125Z,65.29
2016-08-29T03:59:49.312Z,65.31
2016-08-29T04:00:17.692Z,65.28
2016-08-29T04:01:40.131Z,65.32
2016-08-29T04:02:46.322Z,65.42
2016-08-29T04:03:38.893Z,65.45
2016-08-29T04:04:44.749Z,65.44
2016-08-29T04:05:39.961Z,65.30
2016-08-29T04:06:33.295Z,64.51
2016-08-29T04:07:44.180Z,64.33
2016-08-29T04:08:33.593Z,64.55
2016-08-29T04:09:41.345Z,65.15
2016-08-29T04:10:50.425Z,65.44
2016-08-29T04:11:40.813Z,65.52
2016-08-29T04:12:46.518Z,65.50
2016-08-29T04:13:40.020Z,65.53
2016-08-29T04:14:39.732Z,65.62
2016-08-29T04:15:34.479Z,65.69
2016-08-29T04:16:50.747Z,65.59
2016-08-29T04:17:32.986Z,65.65
2016-08-29T04:18:33.445Z,65.65
2016-08-29T04:19:38.358Z,65.64
2016-08-29T04:20:36.011Z,65.59
2016-08-29T04:21:32.060Z,65.60
2016-08-29T04:22:37.969Z,64.53
2016-08-29T04:23:36.315Z,64.22
2016-08-29T04:24:44.410Z,64.14
2016-08-29T04:25:50.125Z,64.33
2016-08-29T04:26:40.233Z,65.20
2016-08-29T04:27:43.845Z,65.45
2016-08-29T04:28:46.498Z,65.61
2016-08-29T04:29:46.151Z,65.74
2016-08-29T04:30:29.936Z,65.70
2016-08-29T04:31:44.661Z,65.75
2016-08-29T04:32:46.011Z,65.76
2016-08-29T04:33:50.086Z,65.71
2016-08-29T04:34:33.191Z,65.62
2016-08-29T04:35:43.219Z,65.68
2016-08-29T04:36:46.156Z,65.77
2016-08-29T04:37:41.710Z,65.83
2016-08-29T04:38:38.381Z,65.84
2016-08-29T04:39:28.421Z,65.86
2016-08-29T04:40:18.339Z,65.89
2016-08-29T04:41:25.310Z,65.85
2016-08-29T04:42:24.395Z,65.84
2016-08-29T04:43:23.072Z,65.84
2016-08-29T04:44:19.742Z,65.85
2016-08-29T04:45:23.975Z,65.83
2016-08-29T04:46:23.095Z,65.83
2016-08-29T04:47:45.219Z,65.88
2016-08-29T04:48:39.022Z,65.87
2016-08-29T04:49:34.824Z,65.84
2016-08-29T04:50:27.511Z,65.98
2016-08-29T04:51:31.856Z,66.00
2016-08-29T04:52:32.781Z,66.12
2016-08-29T04:53:26.422Z,66.10
2016-08-29T04:54:34.489Z,66.11
2016-08-29T04:55:26.537Z,66.18
2016-08-29T04:56:18.765Z,66.16
2016-08-29T04:57:21.025Z,66.20
2016-08-29T04:58:20.009Z,66.12
2016-08-29T04:59:34.147Z,66.13
2016-08-29T05:00:25.961Z,64.99
2016-08-29T05:01:24.024Z,64.80
2016-08-29T05:02:39.084Z,64.82
2016-08-29T05:03:21.553Z,65.64
2016-08-29T05:04:26.202Z,65.79
2016-08-29T05:05:15.642Z,65.86
2016-08-29T05:06:42.707Z,65.89
2016-08-29T05:07:33.821Z,65.90
2016-08-29T05:08:45.531Z,66.07
2016-08-29T05:09:39.906Z,65.50
2016-08-29T05:10:38.607Z,65.75
2016-08-29T05:11:27.661Z,66.15
2016-08-29T05:12:33.614Z,66.14
2016-08-29T05:13:39.537Z,66.21
2016-08-29T05:14:41.043Z,66.31
2016-08-29T05:15:33.559Z,66.49
2016-08-29T05:16:41.543Z,66.58
2016-08-29T05:17:52.914Z,66.69
2016-08-29T05:18:55.121Z,66.74
2016-08-29T05:19:50.632Z,66.89
2016-08-29T05:20:40.246Z,66.96
2016-08-29T05:21:40.090Z,67.05
2016-08-29T05:22:43.872Z,67.26
2016-08-29T05:23:39.514Z,67.31
2016-08-29T05:24:45.382Z,67.34
2016-08-29T05:25:48.931Z,67.53
2016-08-29T05:26:45.575Z,67.76
2016-08-29T05:27:45.373Z,67.68
2016-08-29T05:28:39.840Z,67.68
2016-08-29T05:29:50.520Z,67.61
2016-08-29T05:30:33.246Z,67.56
2016-08-29T05:31:51.124Z,67.58
2016-08-29T05:32:47.169Z,67.76
2016-08-29T05:33:52.024Z,67.72
2016-08-29T05:34:51.270Z,67.84
2016-08-29T05:35:45.794Z,67.96
2016-08-29T05:36:52.951Z,68.11
2016-08-29T05:37:49.326Z,68.16
2016-08-29T05:38:55.361Z,68.32
2016-08-29T05:39:54.581Z,68.30
2016-08-29T05:41:00.176Z,68.27
2016-08-29T05:41:45.629Z,68.17
2016-08-29T05:42:45.194Z,68.21
2016-08-29T05:43:43.631Z,68.33
2016-08-29T05:44:57.919Z,68.45
2016-08-29T05:45:57.345Z,68.47
2016-08-29T05:46:49.801Z,68.36
2016-08-29T05:47:57.300Z,68.24
2016-08-29T05:48:44.593Z,68.28
2016-08-29T05:49:45.265Z,68.18
2016-08-29T05:50:46.113Z,68.47
2016-08-29T05:51:44.702Z,68.23
2016-08-29T05:52:50.837Z,68.50
2016-08-29T05:54:02.454Z,67.95
2016-08-29T05:54:48.643Z,68.38
2016-08-29T05:55:52.079Z,68.33
2016-08-29T05:56:46.522Z,68.17
2016-08-29T05:57:51.909Z,68.36
2016-08-29T05:58:49.678Z,68.47
2016-08-29T05:59:51.507Z,68.71
2016-08-29T06:00:51.738Z,68.90
2016-08-29T06:01:57.342Z,68.95
2016-08-29T06:02:43.848Z,68.97
2016-08-29T06:03:56.380Z,69.12
2016-08-29T06:04:51.534Z,69.46
2016-08-29T06:05:52.103Z,69.51
2016-08-29T06:06:51.591Z,69.53
2016-08-29T06:07:57.691Z,69.57
2016-08-29T06:08:47.902Z,69.57
2016-08-29T06:09:57.240Z,69.94
2016-08-29T06:11:03.190Z,70.16
2016-08-29T06:11:52.525Z,69.92
2016-08-29T06:12:45.470Z,69.91
2016-08-29T06:13:51.385Z,70.01
2016-08-29T06:14:42.190Z,70.00
2016-08-29T06:15:39.143Z,70.29
2016-08-29T06:16:49.902Z,70.17
2016-08-29T06:17:57.275Z,70.40
2016-08-29T06:18:46.321Z,70.20
2016-08-29T06:19:53.902Z,70.14
2016-08-29T06:20:41.499Z,70.03
2016-08-29T06:21:57.536Z,69.90
2016-08-29T06:22:50.591Z,69.89
2016-08-29T06:23:51.941Z,69.86
2016-08-29T06:24:49.327Z,69.90
2016-08-29T06:25:43.800Z,69.97
2016-08-29T06:26:45.808Z,70.07
2016-08-29T06:27:51.596Z,69.84
2016-08-29T06:28:38.378Z,69.72
2016-08-29T06:29:42.913Z,69.66
2016-08-29T06:30:43.527Z,69.80
2016-08-29T06:31:46.200Z,69.47
2016-08-29T06:32:37.803Z,69.38
2016-08-29T06:33:53.667Z,69.04
2016-08-29T06:34:50.285Z,69.16
2016-08-29T06:36:06.224Z,69.53
2016-08-29T06:36:57.427Z,69.03
2016-08-29T06:37:49.351Z,69.20
2016-08-29T06:38:57.395Z,69.62
2016-08-29T06:39:49.665Z,69.33
2016-08-29T06:40:54.181Z,69.05
2016-08-29T06:42:31.168Z,69.24
2016-08-29T06:42:35.351Z,68.48
2016-08-29T06:43:44.697Z,67.37
2016-08-29T06:44:34.813Z,67.13
2016-08-29T06:45:51.374Z,67.42
2016-08-29T06:46:45.426Z,67.21
2016-08-29T06:47:44.864Z,67.25
2016-08-29T06:48:54.335Z,68.10
2016-08-29T06:49:34.662Z,68.15
2016-08-29T06:50:42.450Z,68.07
2016-08-29T06:51:36.326Z,68.07
2016-08-29T06:52:40.747Z,67.84
2016-08-29T06:53:50.045Z,67.83
2016-08-29T06:54:49.770Z,67.73
2016-08-29T06:56:04.634Z,67.58
2016-08-29T06:56:42.944Z,67.50
2016-08-29T06:57:42.126Z,67.71
2016-08-29T06:58:32.761Z,67.50
2016-08-29T06:59:50.828Z,67.42
2016-08-29T07:00:47.591Z,67.45
2016-08-29T07:01:52.847Z,67.31
2016-08-29T07:02:44.665Z,67.40
2016-08-29T07:03:46.021Z,67.39
2016-08-29T07:04:49.410Z,67.50
2016-08-29T07:05:45.747Z,67.38
2016-08-29T07:06:55.850Z,67.39
2016-08-29T07:08:02.036Z,67.37
2016-08-29T07:08:54.346Z,67.35
2016-08-29T07:09:52.808Z,67.45
2016-08-29T07:10:45.695Z,67.28
2016-08-29T07:11:46.124Z,67.11
2016-08-29T07:12:54.087Z,66.84
2016-08-29T07:13:54.952Z,66.71
2016-08-29T07:14:46.148Z,66.53
2016-08-29T07:15:36.046Z,66.58
2016-08-29T07:16:33.014Z,66.51
2016-08-29T07:17:48.276Z,66.48
2016-08-29T07:18:45.218Z,66.98
2016-08-29T07:19:40.688Z,66.52
2016-08-29T07:20:50.436Z,66.56
2016-08-29T07:21:41.163Z,66.73
2016-08-29T07:22:41.220Z,66.56
2016-08-29T07:23:41.943Z,66.43
2016-08-29T07:24:45.439Z,66.38
2016-08-29T07:25:56.432Z,66.32
2016-08-29T07:26:54.204Z,66.30
2016-08-29T07:27:45.728Z,66.30
2016-08-29T07:29:01.399Z,66.29
2016-08-29T07:29:50.806Z,66.46
2016-08-29T07:31:06.779Z,66.55
2016-08-29T07:31:44.216Z,66.56
2016-08-29T07:33:01.245Z,66.59
2016-08-29T07:34:02.390Z,66.65
2016-08-29T07:34:45.282Z,66.83
2016-08-29T07:35:46.787Z,66.79
2016-08-29T07:36:49.527Z,66.82
2016-08-29T07:37:50.090Z,66.89
2016-08-29T07:38:50.749Z,66.94
2016-08-29T07:39:51.343Z,67.06
2016-08-29T07:40:41.306Z,67.00
2016-08-29T07:41:53.466Z,67.17
2016-08-29T07:42:48.004Z,67.26
2016-08-29T07:43:44.340Z,67.22
2016-08-29T07:44:44.239Z,66.87
2016-08-29T07:45:38.107Z,67.18
2016-08-29T07:46:48.558Z,66.82
2016-08-29T07:47:45.819Z,66.53
2016-08-29T07:48:39.475Z,66.47
2016-08-29T07:49:37.944Z,66.85
2016-08-29T07:50:57.664Z,67.02
2016-08-29T07:51:41.337Z,67.12
2016-08-29T07:52:46.444Z,67.15
2016-08-29T07:53:50.421Z,66.48
2016-08-29T07:54:29.793Z,66.32
2016-08-29T07:55:39.896Z,66.22
2016-08-29T07:56:56.433Z,65.76
2016-08-29T07:57:44.528Z,65.87
2016-08-29T07:58:19.852Z,65.63
2016-08-29T07:59:32.173Z,65.73
2016-08-29T08:00:41.450Z,65.36
2016-08-29T08:01:46.422Z,65.28
2016-08-29T08:02:46.283Z,65.15
2016-08-29T08:03:20.647Z,65.49
2016-08-29T08:04:14.491Z,65.27
2016-08-29T08:05:41.087Z,66.07
2016-08-29T08:06:49.553Z,66.59
2016-08-29T08:07:51.509Z,66.55
2016-08-29T08:08:34.174Z,66.65
2016-08-29T08:09:13.987Z,66.73
2016-08-29T08:10:16.413Z,67.12
2016-08-29T08:11:15.711Z,67.17
2016-08-29T08:12:13.855Z,67.30
2016-08-29T08:13:13.439Z,67.31
2016-08-29T08:14:14.480Z,66.95
2016-08-29T08:15:15.665Z,67.19
2016-08-29T08:16:15.134Z,67.12
2016-08-29T08:17:40.900Z,67.34
2016-08-29T08:18:34.566Z,67.32
2016-08-29T08:19:20.218Z,67.04
2016-08-29T08:20:20.946Z,66.96
2016-08-29T08:21:13.205Z,66.91
2016-08-29T08:22:33.188Z,66.83
2016-08-29T08:23:39.634Z,66.82
2016-08-29T08:24:39.242Z,66.81
2016-08-29T08:25:43.908Z,66.81
2016-08-29T08:26:58.427Z,66.75
2016-08-29T08:27:41.824Z,66.66
2016-08-29T08:28:55.375Z,66.64
2016-08-29T08:29:50.180Z,66.59
2016-08-29T08:30:52.927Z,66.63
2016-08-29T08:31:51.184Z,66.59
2016-08-29T08:32:43.307Z,66.61
2016-08-29T08:33:44.818Z,66.66
2016-08-29T08:34:47.402Z,66.57
2016-08-29T08:35:39.490Z,66.59
2016-08-29T08:36:53.607Z,66.59
2016-08-29T08:37:51.540Z,66.56
2016-08-29T08:38:50.606Z,66.56
2016-08-29T08:40:07.035Z,66.58
2016-08-29T08:40:57.423Z,66.59
2016-08-29T08:41:48.450Z,66.58
2016-08-29T08:42:50.456Z,66.62
2016-08-29T08:43:38.460Z,66.61
2016-08-29T08:44:45.180Z,66.57
2016-08-29T08:45:51.123Z,66.56
2016-08-29T08:46:40.275Z,66.55
2016-08-29T08:47:43.608Z,66.60
2016-08-29T08:48:54.878Z,66.58
2016-08-29T08:49:38.990Z,66.57
2016-08-29T08:50:36.787Z,66.59
2016-08-29T08:51:40.857Z,66.55
2016-08-29T08:52:39.380Z,66.58
2016-08-29T08:53:45.235Z,66.60
2016-08-29T08:54:47.590Z,66.61
2016-08-29T08:55:51.652Z,66.66
2016-08-29T08:56:44.280Z,66.67
2016-08-29T08:57:46.052Z,66.67
2016-08-29T08:58:35.135Z,66.67
2016-08-29T08:59:38.890Z,66.70
2016-08-29T09:00:46.367Z,66.67
2016-08-29T09:01:46.134Z,66.69
2016-08-29T09:02:48.998Z,66.68
2016-08-29T09:03:47.172Z,66.66
2016-08-29T09:04:49.265Z,66.63
2016-08-29T09:05:53.543Z,66.70
2016-08-29T09:06:50.606Z,66.71
2016-08-29T09:07:56.000Z,66.72
2016-08-29T09:08:39.919Z,66.70
2016-08-29T09:09:49.601Z,66.71
2016-08-29T09:10:24.271Z,66.67
2016-08-29T09:11:18.250Z,66.69
2016-08-29T09:12:26.693Z,66.69
2016-08-29T09:13:19.498Z,66.67
2016-08-29T09:14:22.347Z,66.68
2016-08-29T09:15:16.458Z,66.54
2016-08-29T09:16:15.286Z,65.64
2016-08-29T09:17:11.845Z,65.41
2016-08-29T09:18:15.465Z,65.59
2016-08-29T09:19:14.035Z,66.24
2016-08-29T09:20:20.795Z,66.42
2016-08-29T09:21:21.752Z,66.50
2016-08-29T09:22:17.135Z,66.60
2016-08-29T09:23:23.625Z,66.62
2016-08-29T09:24:45.434Z,66.69
2016-08-29T09:25:47.451Z,66.65
2016-08-29T09:26:46.843Z,66.67
2016-08-29T09:27:51.133Z,66.74
2016-08-29T09:28:46.245Z,66.68
2016-08-29T09:29:45.562Z,66.65
2016-08-29T09:30:50.693Z,66.68
2016-08-29T09:31:52.764Z,66.65
2016-08-29T09:32:46.479Z,66.64
2016-08-29T09:33:50.405Z,66.65
2016-08-29T09:34:39.251Z,66.70
2016-08-29T09:35:54.814Z,66.73
2016-08-29T09:36:51.614Z,66.75
2016-08-29T09:37:44.306Z,66.79
2016-08-29T09:38:43.403Z,66.79
2016-08-29T09:39:44.917Z,66.84
2016-08-29T09:40:42.762Z,66.82
2016-08-29T09:41:49.505Z,66.87
2016-08-29T09:42:44.834Z,65.75
2016-08-29T09:43:51.587Z,65.59
2016-08-29T09:44:53.020Z,65.52
2016-08-29T09:45:50.661Z,65.53
2016-08-29T09:46:50.595Z,65.54
2016-08-29T09:47:52.685Z,65.40
2016-08-29T09:48:44.578Z,65.37
2016-08-29T09:49:46.371Z,65.35
2016-08-29T09:50:52.233Z,65.63
2016-08-29T09:51:39.977Z,66.39
2016-08-29T09:53:00.882Z,66.62
2016-08-29T09:53:50.916Z,66.68
2016-08-29T09:54:58.043Z,66.73
2016-08-29T09:55:57.761Z,66.98
2016-08-29T09:56:37.670Z,67.18
2016-08-29T09:57:45.507Z,67.28
2016-08-29T09:59:09.377Z,67.12
2016-08-29T09:59:51.770Z,67.02
2016-08-29T10:00:51.670Z,66.97
2016-08-29T10:01:52.746Z,67.07
2016-08-29T10:02:46.252Z,67.04
2016-08-29T10:03:51.294Z,67.12
2016-08-29T10:04:50.683Z,67.23
2016-08-29T10:05:53.001Z,67.37
2016-08-29T10:06:49.258Z,67.20
2016-08-29T10:07:40.219Z,67.16
2016-08-29T10:08:48.281Z,67.08
2016-08-29T10:09:35.830Z,67.14
2016-08-29T10:10:45.688Z,67.13
2016-08-29T10:11:40.528Z,67.13
2016-08-29T10:12:49.800Z,67.04
2016-08-29T10:13:56.458Z,67.08
2016-08-29T10:14:45.160Z,67.03
2016-08-29T10:15:53.172Z,67.03
2016-08-29T10:16:44.669Z,67.06
2016-08-29T10:17:55.097Z,67.15
2016-08-29T10:18:48.931Z,67.13
2016-08-29T10:19:51.067Z,67.09
2016-08-29T10:20:49.767Z,67.11
2016-08-29T10:21:41.316Z,67.14
2016-08-29T10:22:49.270Z,67.06
2016-08-29T10:23:47.643Z,67.04
2016-08-29T10:24:50.993Z,67.07
2016-08-29T10:25:51.905Z,67.06
2016-08-29T10:26:42.356Z,67.07
2016-08-29T10:27:48.309Z,67.06
2016-08-29T10:28:43.687Z,67.08
2016-08-29T10:29:50.897Z,67.17
2016-08-29T10:30:54.913Z,67.18
2016-08-29T10:31:45.421Z,66.11
2016-08-29T10:32:51.585Z,65.85
2016-08-29T10:33:48.926Z,65.64
2016-08-29T10:34:48.778Z,65.69
2016-08-29T10:35:58.115Z,65.70
2016-08-29T10:36:49.884Z,65.75
2016-08-29T10:37:45.220Z,65.88
2016-08-29T10:38:47.125Z,66.73
2016-08-29T10:39:42.183Z,66.89
2016-08-29T10:40:44.655Z,67.00
2016-08-29T10:41:40.856Z,67.06
2016-08-29T10:42:38.172Z,67.09
2016-08-29T10:43:50.137Z,67.13
2016-08-29T10:44:51.746Z,67.19
2016-08-29T10:45:52.441Z,67.22
2016-08-29T10:46:45.172Z,67.22
2016-08-29T10:47:51.368Z,67.23
2016-08-29T10:48:45.348Z,67.22
2016-08-29T10:49:49.834Z,67.24
2016-08-29T10:50:55.372Z,67.26
2016-08-29T10:51:40.763Z,67.20
2016-08-29T10:52:49.633Z,67.01
2016-08-29T10:53:41.505Z,66.15
2016-08-29T10:54:56.473Z,65.92
2016-08-29T10:55:44.429Z,65.76
2016-08-29T10:56:49.416Z,65.70
2016-08-29T10:57:43.955Z,65.59
2016-08-29T10:58:44.328Z,65.63
2016-08-29T10:59:45.685Z,65.65
2016-08-29T11:01:01.548Z,65.78
2016-08-29T11:01:45.724Z,65.58
2016-08-29T11:02:46.037Z,65.92
2016-08-29T11:03:44.365Z,66.63
2016-08-29T11:04:44.036Z,66.87
2016-08-29T11:05:51.202Z,66.97
2016-08-29T11:06:51.348Z,67.04
2016-08-29T11:07:38.480Z,67.10
2016-08-29T11:08:43.203Z,67.05
2016-08-29T11:09:49.947Z,67.08
2016-08-29T11:10:39.041Z,66.90
2016-08-29T11:11:43.611Z,66.03
2016-08-29T11:12:51.173Z,65.80
2016-08-29T11:13:50.438Z,65.93
2016-08-29T11:14:51.337Z,66.71
2016-08-29T11:15:38.878Z,66.88
2016-08-29T11:16:39.948Z,66.92
2016-08-29T11:17:54.664Z,66.94
2016-08-29T11:18:51.221Z,66.95
2016-08-29T11:19:50.994Z,66.99
2016-08-29T11:20:49.281Z,66.97
2016-08-29T11:21:49.587Z,67.02
2016-08-29T11:22:53.763Z,67.02
2016-08-29T11:23:38.605Z,67.05
2016-08-29T11:24:59.047Z,67.06
2016-08-29T11:25:44.379Z,67.07
2016-08-29T11:26:45.717Z,67.14
2016-08-29T11:27:44.340Z,67.19
2016-08-29T11:28:47.140Z,67.13
2016-08-29T11:29:52.670Z,67.09
2016-08-29T11:30:57.915Z,67.08
2016-08-29T11:31:51.500Z,67.05
2016-08-29T11:32:38.946Z,67.07
2016-08-29T11:33:37.627Z,67.12
2016-08-29T11:34:53.355Z,67.11
2016-08-29T11:35:56.799Z,66.92
2016-08-29T11:36:43.227Z,66.05
2016-08-29T11:37:48.647Z,65.84
2016-08-29T11:38:42.821Z,65.70
2016-08-29T11:39:35.147Z,65.98
2016-08-29T11:40:51.823Z,66.63
2016-08-29T11:41:43.917Z,66.80
2016-08-29T11:42:50.552Z,66.94
2016-08-29T11:43:51.412Z,67.01
2016-08-29T11:44:44.507Z,67.03
2016-08-29T11:45:46.170Z,67.03
2016-08-29T11:46:44.172Z,67.06
2016-08-29T11:47:44.758Z,67.07
2016-08-29T11:48:37.335Z,67.07
2016-08-29T11:49:42.351Z,67.06
2016-08-29T11:50:44.889Z,67.07
2016-08-29T11:51:47.759Z,67.06
2016-08-29T11:52:50.859Z,67.08
2016-08-29T11:53:50.450Z,67.05
2016-08-29T11:55:02.864Z,67.06
2016-08-29T11:55:50.867Z,67.09
2016-08-29T11:56:47.882Z,67.02
2016-08-29T11:58:04.391Z,66.92
2016-08-29T11:58:39.326Z,66.97
2016-08-29T11:59:38.843Z,66.89
2016-08-29T12:00:39.264Z,66.97
2016-08-29T12:01:45.599Z,66.98
2016-08-29T12:02:45.270Z,67.16
2016-08-29T12:03:55.672Z,66.99
2016-08-29T12:04:44.501Z,66.96
2016-08-29T12:05:45.920Z,66.98
2016-08-29T12:06:45.727Z,66.98
2016-08-29T12:07:43.089Z,67.18
2016-08-29T12:08:40.374Z,67.13
2016-08-29T12:09:15.969Z,66.92
2016-08-29T12:10:31.535Z,67.02
2016-08-29T12:11:31.344Z,67.14
2016-08-29T12:12:39.238Z,67.15
2016-08-29T12:13:38.279Z,67.09
2016-08-29T12:14:41.019Z,67.24
2016-08-29T12:15:39.864Z,66.86
2016-08-29T12:16:40.948Z,66.95
2016-08-29T12:17:34.367Z,66.95
2016-08-29T12:18:44.527Z,67.01
2016-08-29T12:19:46.994Z,67.02
2016-08-29T12:20:37.210Z,67.01
2016-08-29T12:21:25.868Z,67.00
2016-08-29T12:22:33.628Z,67.02
2016-08-29T12:23:14.679Z,67.00
2016-08-29T12:24:31.566Z,67.04
2016-08-29T12:25:39.407Z,67.03
2016-08-29T12:26:34.972Z,66.99
2016-08-29T12:27:19.225Z,66.97
2016-08-29T12:28:17.119Z,66.85
2016-08-29T12:29:13.313Z,65.98
2016-08-29T12:30:23.369Z,65.76
2016-08-29T12:31:23.997Z,65.66
2016-08-29T12:32:22.292Z,65.59
2016-08-29T12:33:34.959Z,65.54
2016-08-29T12:34:14.444Z,65.52
2016-08-29T12:35:33.125Z,65.80
2016-08-29T12:36:27.588Z,66.55
2016-08-29T12:37:33.921Z,66.71
2016-08-29T12:38:35.779Z,66.77
2016-08-29T12:39:27.624Z,66.87
2016-08-29T12:40:34.518Z,66.90
2016-08-29T12:41:48.400Z,66.93
2016-08-29T12:42:36.332Z,66.92
2016-08-29T12:43:40.189Z,66.94
2016-08-29T12:44:28.726Z,66.96
2016-08-29T12:45:34.363Z,66.93
2016-08-29T12:46:45.411Z,66.93
2016-08-29T12:47:28.692Z,66.92
2016-08-29T12:48:34.981Z,66.90
2016-08-29T12:49:37.742Z,66.91
2016-08-29T12:50:25.470Z,66.86
2016-08-29T12:51:39.192Z,66.78
2016-08-29T12:52:44.617Z,66.81